Rostjenta — LK6977 — position and weather

sailwx.info

Track history (hours):
 
Tides and Currents Weather Stations Pressure Air Temp Water Temp Dewpoint Dewpoint Depression Visibility Wind Speed Wind Dir Waves Ship Positions

Rostjenta

Last reported at 2017-Nov-16 09:06 UTC. Time now 2017-Nov-24 20:42 UTC.
Position N 70°38' E 021°59'.
Warning: this ship's position is 8 days out of date.

Length 15 m.

Type: Ship. MMSI: 257077440.

Date/timePositionNaut miles runAvg speedWind from/ knotsBaromVisibWave heightAir tempDewpointWater temp
2017-Nov-16 09:06N 70°38' E 021°59'0 0.0
2017-Nov-16 09:01N 70°38' E 021°59'0 0.0
2017-Nov-16 08:30N 70°38' E 021°59'0 0.0
2017-Nov-16 08:00N 70°38' E 021°59'0 0.0
2017-Nov-16 07:30N 70°38' E 021°59'0 0.0
2017-Nov-16 07:00N 70°38' E 021°59'0 0.0
2017-Nov-16 06:31N 70°38' E 021°59'0 0.0
2017-Nov-16 06:01N 70°38' E 021°59'0 0.0
2017-Nov-16 05:30N 70°38' E 021°59'0 0.0
2017-Nov-16 05:00N 70°38' E 021°59'0 0.0
2017-Nov-16 04:30N 70°38' E 021°59'0 0.0
2017-Nov-16 04:00N 70°38' E 021°59'0 0.0
2017-Nov-16 03:30N 70°38' E 021°59'0 0.0
2017-Nov-16 03:00N 70°38' E 021°59'0 0.0
2017-Nov-16 02:30N 70°38' E 021°59'0 0.0
2017-Nov-16 02:00N 70°38' E 021°59'0 0.0
2017-Nov-16 01:30N 70°38' E 021°59'0 0.0
2017-Nov-16 01:01N 70°38' E 021°59'0 0.0
2017-Nov-16 00:30N 70°38' E 021°59'0 0.0
2017-Nov-16 00:00N 70°38' E 021°59'0 0.0
2017-Nov-15 23:30N 70°38' E 021°59'0 0.0
2017-Nov-15 23:00N 70°38' E 021°59'0 0.0
2017-Nov-15 22:30N 70°38' E 021°59'0 0.0
2017-Nov-15 22:00N 70°38' E 021°59'0 0.0
2017-Nov-15 21:30N 70°38' E 021°59'0 0.0
2017-Nov-15 21:00N 70°38' E 021°59'0 0.0
2017-Nov-15 20:30N 70°38' E 021°59'0 0.0
2017-Nov-15 20:00N 70°38' E 021°59'0 0.0
2017-Nov-15 19:30N 70°38' E 021°59'0 0.0
2017-Nov-15 19:00N 70°38' E 021°59'0 0.0
2017-Nov-15 18:30N 70°38' E 021°59'0 0.0
2017-Nov-15 18:00N 70°38' E 021°59'0 0.0
2017-Nov-15 17:30N 70°38' E 021°59'0 0.0
2017-Nov-15 17:00N 70°38' E 021°59'0 0.0
2017-Nov-15 16:30N 70°38' E 021°59'0 0.0
2017-Nov-15 16:00N 70°38' E 021°59'0 0.0
2017-Nov-15 15:30N 70°38' E 021°59'0 0.0
2017-Nov-15 15:00N 70°38' E 021°59'0 0.0
2017-Nov-15 14:30N 70°38' E 021°59'0 0.0
2017-Nov-15 14:00N 70°38' E 021°59'0 0.1
2017-Nov-15 13:31N 70°38' E 021°59'0 0.0
2017-Nov-15 13:00N 70°38' E 021°59'3 6.1
2017-Nov-15 12:30N 70°35' E 021°56'4 7.1
2017-Nov-15 12:00N 70°31' E 021°54'1 1.0
2017-Nov-15 11:30N 70°31' E 021°53'1 1.2
2017-Nov-15 11:01N 70°31' E 021°52'1 2.1
2017-Nov-15 10:31N 70°31' E 021°50'1 1.1
2017-Nov-15 10:00N 70°32' E 021°49'0 0.9
2017-Nov-15 09:30N 70°32' E 021°48'1 1.1
2017-Nov-15 09:00N 70°32' E 021°46'0 0.6
2017-Nov-15 08:30N 70°32' E 021°47'1 1.2
2017-Nov-15 08:01N 70°33' E 021°48'1 2.6
2017-Nov-15 07:30N 70°33' E 021°52'0 0.1
2017-Nov-15 07:00N 70°33' E 021°52'0 0.8
2017-Nov-15 06:30N 70°33' E 021°51'0 0.6
2017-Nov-15 06:00N 70°33' E 021°50'1 2.0
2017-Nov-15 05:30N 70°32' E 021°52'1 2.4
2017-Nov-15 05:00N 70°31' E 021°52'2 4.7
2017-Nov-15 04:30N 70°32' E 021°46'3 6.8
2017-Nov-15 04:00N 70°35' E 021°52'4 7.6
2017-Nov-15 03:30N 70°38' E 021°59'0 0.0
2017-Nov-15 03:00N 70°38' E 021°59'0 0.0
2017-Nov-15 02:30N 70°38' E 021°59'0 0.0
2017-Nov-15 02:00N 70°38' E 021°59'0 0.0
2017-Nov-15 01:30N 70°38' E 021°59'0 0.0
2017-Nov-15 01:00N 70°38' E 021°59'0 0.0
2017-Nov-15 00:30N 70°38' E 021°59'0 0.0
2017-Nov-15 00:00N 70°38' E 021°59'0 0.0
2017-Nov-14 23:30N 70°38' E 021°59'0 0.0
2017-Nov-14 23:00N 70°38' E 021°59'0 0.0
2017-Nov-14 22:30N 70°38' E 021°59'0 0.0
2017-Nov-14 22:01N 70°38' E 021°59'0 0.0
2017-Nov-14 21:30N 70°38' E 021°59'0 0.0
2017-Nov-14 21:00N 70°38' E 021°59'0 0.0
2017-Nov-14 20:30N 70°38' E 021°59'0 0.0
2017-Nov-14 20:00N 70°38' E 021°59'0 0.0
2017-Nov-14 19:30N 70°38' E 021°59'0 0.0
2017-Nov-14 19:01N 70°38' E 021°59'0 0.0
2017-Nov-14 18:30N 70°38' E 021°59'0 0.0
2017-Nov-14 18:00N 70°38' E 021°59'0 0.0
2017-Nov-14 17:30N 70°38' E 021°59'0 0.0
2017-Nov-14 17:00N 70°38' E 021°59'0 0.0
2017-Nov-14 16:30N 70°38' E 021°59'0 0.0
2017-Nov-14 16:00N 70°38' E 021°59'0 0.1
2017-Nov-14 15:30N 70°38' E 021°59'0 0.1
2017-Nov-14 15:00N 70°38' E 021°59'3 6.1
2017-Nov-14 14:30N 70°41' E 021°57'5 9.1
2017-Nov-14 14:00N 70°45' E 022°03'3 5.2
2017-Nov-14 13:30N 70°47' E 022°06'1 1.0
2017-Nov-14 13:00N 70°48' E 022°05'1 1.3
2017-Nov-14 12:30N 70°48' E 022°06'4 8.3
2017-Nov-14 12:00N 70°48' E 022°19'0 0.4
2017-Nov-14 11:30N 70°48' E 022°19'1 1.1
2017-Nov-14 11:00N 70°49' E 022°18'1 1.1
2017-Nov-14 10:31N 70°49' E 022°17'1 2.9
2017-Nov-14 10:01N 70°48' E 022°18'0 0.9
2017-Nov-14 09:30N 70°48' E 022°17'0 0.8
2017-Nov-14 09:00N 70°48' E 022°16'0 0.9
2017-Nov-14 08:30N 70°48' E 022°14'1 2.2
2017-Nov-14 08:00N 70°49' E 022°11'0 1.0
2017-Nov-14 07:30N 70°49' E 022°10'1 2.0
2017-Nov-14 07:00N 70°49' E 022°13'0 0.6
2017-Nov-14 06:30N 70°49' E 022°13'1 1.1
2017-Nov-14 06:00N 70°49' E 022°12'3 5.2
2017-Nov-14 05:30N 70°48' E 022°19'2 3.9
2017-Nov-14 05:00N 70°48' E 022°13'4 7.9
2017-Nov-14 04:30N 70°44' E 022°07'4 7.6
2017-Nov-14 04:00N 70°42' E 021°60'4 7.5
2017-Nov-14 03:31N 70°38' E 021°54'2 3.1
2017-Nov-14 03:00N 70°38' E 021°59'0 0.0
2017-Nov-14 02:30N 70°38' E 021°59'0 0.0
2017-Nov-14 02:00N 70°38' E 021°59'0 0.0
2017-Nov-14 01:30N 70°38' E 021°59'0 0.0
2017-Nov-14 01:00N 70°38' E 021°59'0 0.0
2017-Nov-14 00:30N 70°38' E 021°59'0 0.0
2017-Nov-14 00:00N 70°38' E 021°59'0 0.0
2017-Nov-13 23:31N 70°38' E 021°59'0 0.0
2017-Nov-13 23:00N 70°38' E 021°59'0 0.0
2017-Nov-13 22:30N 70°38' E 021°59'0 0.0
2017-Nov-13 22:00N 70°38' E 021°59'0 0.0
2017-Nov-13 02:00N 70°38' E 021°59'0 0.0
2017-Nov-13 01:30N 70°38' E 021°59'0 0.0
2017-Nov-13 01:00N 70°38' E 021°59'0 0.0
2017-Nov-13 00:30N 70°38' E 021°59'0 0.0
2017-Nov-13 00:00N 70°38' E 021°59'0 0.0
2017-Nov-12 23:30N 70°38' E 021°59'0 0.0
2017-Nov-12 23:01N 70°38' E 021°59'0 0.0
2017-Nov-12 22:30N 70°38' E 021°59'0 0.0
2017-Nov-12 22:00N 70°38' E 021°59'0 0.0
2017-Nov-12 21:30N 70°38' E 021°59'0 0.0
2017-Nov-12 21:01N 70°38' E 021°59'0 0.0
2017-Nov-12 20:30N 70°38' E 021°59'0 0.0
2017-Nov-12 20:01N 70°38' E 021°59'0 0.0
2017-Nov-12 19:31N 70°38' E 021°59'0 0.0
2017-Nov-12 19:00N 70°38' E 021°59'0 0.0
2017-Nov-12 18:30N 70°38' E 021°59'0 0.0
2017-Nov-12 18:01N 70°38' E 021°59'0 0.0
2017-Nov-12 17:30N 70°38' E 021°59'0 0.0
2017-Nov-12 17:00N 70°38' E 021°59'0 0.0
2017-Nov-12 16:30N 70°38' E 021°59'0 0.0
2017-Nov-12 16:00N 70°38' E 021°59'0 0.0
2017-Nov-12 15:30N 70°38' E 021°59'0 0.0
2017-Nov-12 15:01N 70°38' E 021°59'0 0.0
2017-Nov-12 14:30N 70°38' E 021°59'0 0.0
2017-Nov-12 14:00N 70°38' E 021°59'0 0.0
2017-Nov-12 13:30N 70°38' E 021°59'0 0.0
2017-Nov-12 13:00N 70°38' E 021°59'0 0.0
2017-Nov-12 12:30N 70°38' E 021°59'0 0.0
2017-Nov-12 12:00N 70°38' E 021°59'0 0.0
2017-Nov-12 11:30N 70°38' E 021°59'0 0.0
2017-Nov-12 11:00N 70°38' E 021°59'0 0.0
2017-Nov-12 10:30N 70°38' E 021°59'0 0.0
2017-Nov-12 10:00N 70°38' E 021°59'0 0.0
2017-Nov-12 09:30N 70°38' E 021°59'0 0.0
2017-Nov-12 09:00N 70°38' E 021°59'0 0.0
2017-Nov-12 08:30N 70°38' E 021°59'0 0.0
2017-Nov-12 08:00N 70°38' E 021°59'0 0.0
2017-Nov-12 07:30N 70°38' E 021°59'0 0.0
2017-Nov-12 07:00N 70°38' E 021°59'0 0.0
2017-Nov-12 06:30N 70°38' E 021°59'0 0.0
2017-Nov-12 06:00N 70°38' E 021°59'0 0.0
2017-Nov-12 05:30N 70°38' E 021°59'0 0.0
2017-Nov-12 05:00N 70°38' E 021°59'0 0.0
2017-Nov-12 04:30N 70°38' E 021°59'0 0.0
2017-Nov-12 04:00N 70°38' E 021°59'0 0.0
2017-Nov-12 03:31N 70°38' E 021°59'0 0.0
2017-Nov-12 03:00N 70°38' E 021°59'0 0.0
2017-Nov-12 02:30N 70°38' E 021°59'0 0.0
2017-Nov-12 02:00N 70°38' E 021°59'0 0.0
2017-Nov-12 01:30N 70°38' E 021°59'0 0.0
2017-Nov-12 01:00N 70°38' E 021°59'0 0.0
2017-Nov-12 00:30N 70°38' E 021°59'0 0.0
2017-Nov-12 00:00N 70°38' E 021°59'0 0.0
2017-Nov-11 23:31N 70°38' E 021°59'0 0.0
2017-Nov-11 23:01N 70°38' E 021°59'0 0.0
2017-Nov-11 22:30N 70°38' E 021°59'0 0.0
2017-Nov-11 22:00N 70°38' E 021°59'0 0.0
2017-Nov-11 21:30N 70°38' E 021°59'0 0.0
2017-Nov-11 21:00N 70°38' E 021°59'0 0.0
2017-Nov-11 20:30N 70°38' E 021°59'0 0.0
2017-Nov-11 20:00N 70°38' E 021°59'0 0.0
2017-Nov-11 19:30N 70°38' E 021°59'0 0.0
2017-Nov-11 19:00N 70°38' E 021°59'0 0.0
2017-Nov-11 18:30N 70°38' E 021°59'0 0.0
2017-Nov-11 18:00N 70°38' E 021°59'0 0.0
2017-Nov-11 17:30N 70°38' E 021°59'0 0.0
2017-Nov-11 17:00N 70°38' E 021°59'0 0.0
2017-Nov-11 16:30N 70°38' E 021°59'0 0.0
2017-Nov-11 16:00N 70°38' E 021°59'0 0.0
2017-Nov-11 15:30N 70°38' E 021°59'0 0.0
2017-Nov-11 15:00N 70°38' E 021°59'0 0.0
2017-Nov-11 14:30N 70°38' E 021°59'0 0.1
2017-Nov-11 14:00N 70°38' E 021°59'2 3.1
2017-Nov-11 13:30N 70°39' E 021°56'4 8.2
2017-Nov-11 13:00N 70°43' E 022°00'4 8.9
2017-Nov-11 12:30N 70°47' E 022°06'2 4.3
2017-Nov-11 12:00N 70°48' E 022°11'1 1.2
2017-Nov-11 11:30N 70°49' E 022°12'3 6.3
2017-Nov-11 11:01N 70°46' E 022°17'0 0.2
2017-Nov-11 10:30N 70°46' E 022°17'1 1.3
2017-Nov-11 10:00N 70°47' E 022°17'1 1.2
2017-Nov-11 09:30N 70°48' E 022°16'3 5.9
2017-Nov-11 09:00N 70°45' E 022°15'1 1.1
2017-Nov-11 08:30N 70°45' E 022°15'1 1.2
2017-Nov-11 08:00N 70°46' E 022°14'0 1.0
2017-Nov-11 07:30N 70°46' E 022°13'1 1.0
2017-Nov-11 07:00N 70°47' E 022°14'0 1.0
2017-Nov-11 06:30N 70°47' E 022°15'1 1.2
2017-Nov-11 06:00N 70°47' E 022°16'1 2.9
2017-Nov-11 05:30N 70°46' E 022°17'1 2.9
2017-Nov-11 05:00N 70°45' E 022°15'4 8.7
2017-Nov-11 04:30N 70°42' E 022°04'4 8.9
2017-Nov-11 04:00N 70°39' E 021°55'2 3.7
2017-Nov-11 03:30N 70°38' E 021°59'0 0.0
2017-Nov-11 03:00N 70°38' E 021°59'0 0.0
2017-Nov-11 02:31N 70°38' E 021°59'0 0.0
2017-Nov-11 02:01N 70°38' E 021°59'0 0.0
2017-Nov-11 01:31N 70°38' E 021°59'0 0.0
2017-Nov-11 01:00N 70°38' E 021°59'0 0.0
2017-Nov-11 00:30N 70°38' E 021°59'0 0.0
2017-Nov-11 00:00N 70°38' E 021°59'0 0.0
2017-Nov-10 23:30N 70°38' E 021°59'0 0.0
2017-Nov-10 23:00N 70°38' E 021°59'0 0.0
2017-Nov-10 22:30N 70°38' E 021°59'0 0.0
2017-Nov-10 22:01N 70°38' E 021°59'0 0.0
2017-Nov-10 21:30N 70°38' E 021°59'0 0.0
2017-Nov-10 21:01N 70°38' E 021°59'0 0.0
2017-Nov-10 20:30N 70°38' E 021°59'0 0.0
2017-Nov-10 20:00N 70°38' E 021°59'0 0.0
2017-Nov-10 19:30N 70°38' E 021°59'0 0.0
2017-Nov-10 19:00N 70°38' E 021°59'0 0.0
2017-Nov-10 18:30N 70°38' E 021°59'0 0.0
2017-Nov-10 18:01N 70°38' E 021°59'0 0.0
2017-Nov-10 17:30N 70°38' E 021°59'0 0.0
2017-Nov-10 17:00N 70°38' E 021°59'0 0.0
2017-Nov-10 16:30N 70°38' E 021°59'0 0.0
2017-Nov-10 16:00N 70°38' E 021°59'0 0.0
2017-Nov-10 15:30N 70°38' E 021°59'0 0.0
2017-Nov-10 15:00N 70°38' E 021°59'0 0.0
2017-Nov-10 14:30N 70°38' E 021°59'0 0.0
2017-Nov-10 14:00N 70°38' E 021°59'0 0.0
2017-Nov-10 13:30N 70°38' E 021°59'0 0.0
2017-Nov-10 13:00N 70°38' E 021°59'0 0.0
2017-Nov-10 12:30N 70°38' E 021°59'0 0.0
2017-Nov-10 12:00N 70°38' E 021°59'0 0.0
2017-Nov-10 11:30N 70°38' E 021°59'0 0.0
2017-Nov-10 11:00N 70°38' E 021°59'0 0.0
2017-Nov-10 10:30N 70°38' E 021°59'0 0.0
2017-Nov-10 10:00N 70°38' E 021°59'0 0.0
2017-Nov-10 09:30N 70°38' E 021°59'0 0.0
2017-Nov-10 09:01N 70°38' E 021°59'0 0.0
2017-Nov-10 08:30N 70°38' E 021°59'0 0.0
2017-Nov-10 08:01N 70°38' E 021°59'0 0.0
2017-Nov-10 07:31N 70°38' E 021°59'0 0.0
2017-Nov-10 07:00N 70°38' E 021°59'0 0.0
2017-Nov-10 06:30N 70°38' E 021°59'0 0.0
2017-Nov-10 06:00N 70°38' E 021°59'0 0.0
2017-Nov-10 05:30N 70°38' E 021°59'0 0.0
2017-Nov-10 05:01N 70°38' E 021°59'0 0.0
2017-Nov-10 04:30N 70°38' E 021°59'0 0.0
2017-Nov-10 04:00N 70°38' E 021°59'0 0.0
2017-Nov-10 03:30N 70°38' E 021°59'0 0.0
2017-Nov-10 03:00N 70°38' E 021°59'0 0.0
2017-Nov-10 02:30N 70°38' E 021°59'0 0.0
2017-Nov-10 02:00N 70°38' E 021°59'0 0.0
2017-Nov-10 01:30N 70°38' E 021°59'0 0.0
2017-Nov-10 01:00N 70°38' E 021°59'0 0.0
2017-Nov-10 00:30N 70°38' E 021°59'0 0.0
2017-Nov-10 00:00N 70°38' E 021°59'0 0.0
2017-Nov-09 23:30N 70°38' E 021°59'0 0.0
2017-Nov-09 23:00N 70°38' E 021°59'0 0.0
2017-Nov-09 22:30N 70°38' E 021°59'0 0.0
2017-Nov-09 22:00N 70°38' E 021°59'0 0.0
2017-Nov-09 21:29N 70°38' E 021°59'0 0.0
2017-Nov-09 21:00N 70°38' E 021°59'0 0.0
2017-Nov-09 20:30N 70°38' E 021°59'0 0.0
2017-Nov-09 20:01N 70°38' E 021°59'0 0.0
2017-Nov-09 19:30N 70°38' E 021°59'0 0.0
2017-Nov-09 18:59N 70°38' E 021°59'0 0.0
2017-Nov-09 18:30N 70°38' E 021°59'0 0.0
2017-Nov-09 18:00N 70°38' E 021°59'0 0.0
2017-Nov-09 17:30N 70°38' E 021°59'0 0.0
2017-Nov-09 17:01N 70°38' E 021°59'0 0.0
2017-Nov-09 16:31N 70°38' E 021°59'0 0.0
2017-Nov-09 16:00N 70°38' E 021°59'0 0.0
2017-Nov-09 15:30N 70°38' E 021°59'0 0.0
2017-Nov-09 15:00N 70°38' E 021°59'0 0.0
2017-Nov-09 14:30N 70°38' E 021°59'0 0.0
2017-Nov-09 14:00N 70°38' E 021°59'0 0.1
2017-Nov-09 13:30N 70°38' E 021°59'1 1.5
2017-Nov-09 13:00N 70°38' E 021°57'3 5.7
2017-Nov-09 12:30N 70°40' E 021°57'4 7.7
2017-Nov-09 12:01N 70°43' E 022°05'1 1.2
2017-Nov-09 11:30N 70°44' E 022°04'1 1.1
2017-Nov-09 11:01N 70°44' E 022°03'1 1.0
2017-Nov-09 10:31N 70°45' E 022°02'1 1.4
2017-Nov-09 10:00N 70°45' E 022°00'0 0.8
2017-Nov-09 09:30N 70°45' E 021°60'0 0.9
2017-Nov-09 09:00N 70°46' E 021°59'0 0.8
2017-Nov-09 08:30N 70°46' E 021°59'0 0.1
2017-Nov-09 08:00N 70°46' E 021°59'2 4.0
2017-Nov-09 07:30N 70°44' E 021°59'0 0.9
2017-Nov-09 07:00N 70°44' E 021°58'0 0.9
2017-Nov-09 06:30N 70°45' E 021°57'0 0.8
2017-Nov-09 06:01N 70°45' E 021°56'1 2.3
2017-Nov-09 05:30N 70°44' E 021°56'5 9.0
2017-Nov-09 05:00N 70°39' E 021°54'2 3.9
2017-Nov-09 04:31N 70°38' E 021°59'0 0.0
2017-Nov-09 04:00N 70°38' E 021°59'0 0.0
2017-Nov-09 03:30N 70°38' E 021°59'0 0.0
2017-Nov-09 03:00N 70°38' E 021°59'0 0.0
2017-Nov-09 02:30N 70°38' E 021°59'0 0.0
2017-Nov-09 02:00N 70°38' E 021°59'0 0.0
2017-Nov-09 01:30N 70°38' E 021°59'0 0.0
2017-Nov-09 01:00N 70°38' E 021°59'0 0.0
2017-Nov-09 00:30N 70°38' E 021°59'0 0.0
2017-Nov-09 00:00N 70°38' E 021°59'0 0.0
2017-Nov-08 23:30N 70°38' E 021°59'0 0.0
2017-Nov-08 23:00N 70°38' E 021°59'0 0.0
2017-Nov-08 22:30N 70°38' E 021°59'0 0.0
2017-Nov-08 22:00N 70°38' E 021°59'0 0.0
2017-Nov-08 21:30N 70°38' E 021°59'0 0.0
2017-Nov-08 21:00N 70°38' E 021°59'0 0.0
2017-Nov-08 20:30N 70°38' E 021°59'0 0.0
2017-Nov-08 20:01N 70°38' E 021°59'0 0.0
2017-Nov-08 19:30N 70°38' E 021°59'0 0.0
2017-Nov-08 19:00N 70°38' E 021°59'0 0.0
2017-Nov-08 18:31N 70°38' E 021°59'0 0.0
2017-Nov-08 18:00N 70°38' E 021°59'0 0.0
2017-Nov-08 17:30N 70°38' E 021°59'0 0.1
2017-Nov-08 17:00N 70°38' E 021°59'1 2.5
2017-Nov-08 16:30N 70°38' E 021°55'3 6.6
2017-Nov-08 16:00N 70°41' E 021°58'3 6.5
2017-Nov-08 15:30N 70°43' E 022°05'2 4.2
2017-Nov-08 15:00N 70°45' E 022°00'0 0.8
2017-Nov-08 14:30N 70°45' E 021°59'1 2.2
2017-Nov-08 14:00N 70°45' E 021°56'4 8.2
2017-Nov-08 13:30N 70°41' E 021°51'4 8.7
2017-Nov-08 12:59N 70°37' E 021°48'4 8.2
2017-Nov-08 12:30N 70°33' E 021°46'0 0.4
2017-Nov-08 12:00N 70°33' E 021°47'1 1.0
2017-Nov-08 11:30N 70°33' E 021°48'0 0.9
2017-Nov-08 11:01N 70°33' E 021°49'1 2.2
2017-Nov-08 10:30N 70°32' E 021°47'0 0.8
2017-Nov-08 10:00N 70°32' E 021°49'0 0.9
2017-Nov-08 09:30N 70°33' E 021°50'0 0.3
2017-Nov-08 09:00N 70°33' E 021°50'1 2.7
2017-Nov-08 08:30N 70°32' E 021°48'0 0.9
2017-Nov-08 08:01N 70°32' E 021°49'1 1.1
2017-Nov-08 07:30N 70°32' E 021°50'1 1.9
2017-Nov-08 07:00N 70°31' E 021°49'1 1.0
2017-Nov-08 06:31N 70°32' E 021°50'1 1.0
2017-Nov-08 06:01N 70°32' E 021°51'2 3.7
2017-Nov-08 05:31N 70°34' E 021°53'4 7.7
2017-Nov-08 05:00N 70°38' E 021°58'0 0.8
2017-Nov-08 04:31N 70°38' E 021°59'0 0.0
2017-Nov-08 04:00N 70°38' E 021°59'0 0.0
2017-Nov-08 03:30N 70°38' E 021°59'0 0.0
2017-Nov-08 03:00N 70°38' E 021°59'0 0.0
2017-Nov-08 02:30N 70°38' E 021°59'0 0.0
2017-Nov-08 02:00N 70°38' E 021°59'0 0.0
2017-Nov-08 01:30N 70°38' E 021°59'0 0.0
2017-Nov-08 01:00N 70°38' E 021°59'0 0.0
2017-Nov-08 00:29N 70°38' E 021°59'0 0.0
2017-Nov-08 00:00N 70°38' E 021°59'0 0.0
2017-Nov-07 22:40N 70°38' E 021°59'0 0.0
2017-Nov-07 22:30N 70°38' E 021°59'0 0.0
2017-Nov-07 22:00N 70°38' E 021°59'0 0.0
2017-Nov-07 21:31N 70°38' E 021°59'0 0.0
2017-Nov-07 21:00N 70°38' E 021°59'0 0.0
2017-Nov-07 20:30N 70°38' E 021°59'0 0.0
2017-Nov-07 20:00N 70°38' E 021°59'0 0.0
2017-Nov-07 19:30N 70°38' E 021°59'0 0.0
2017-Nov-07 19:00N 70°38' E 021°59'0 0.0
2017-Nov-07 18:30N 70°38' E 021°59'0 0.0
2017-Nov-07 18:00N 70°38' E 021°59'0 0.0
2017-Nov-07 17:30N 70°38' E 021°59'0 0.0
2017-Nov-07 17:00N 70°38' E 021°59'0 0.0
2017-Nov-07 16:30N 70°38' E 021°59'0 0.0
2017-Nov-07 16:01N 70°38' E 021°59'0 0.0
2017-Nov-07 15:31N 70°38' E 021°59'0 0.0
2017-Nov-07 15:00N 70°38' E 021°59'0 0.0
2017-Nov-07 14:30N 70°38' E 021°59'0 0.0
2017-Nov-07 14:00N 70°38' E 021°59'0 0.1
2017-Nov-07 13:30N 70°38' E 021°59'4 8.1
2017-Nov-07 13:00N 70°35' E 021°50'3 5.2
2017-Nov-07 12:31N 70°33' E 021°47'1 2.0
2017-Nov-07 12:00N 70°33' E 021°50'2 3.0
2017-Nov-07 11:30N 70°31' E 021°49'2 3.9
2017-Nov-07 11:00N 70°33' E 021°50'4 7.6
2017-Nov-07 10:30N 70°37' E 021°56'2 3.3
2017-Nov-07 10:00N 70°38' E 021°59'0 0.0
2017-Nov-07 09:30N 70°38' E 021°59'0 0.0
2017-Nov-07 09:00N 70°38' E 021°59'0 0.0
2017-Nov-07 08:31N 70°38' E 021°59'0 0.0
2017-Nov-07 08:00N 70°38' E 021°59'0 0.0
2017-Nov-07 07:30N 70°38' E 021°59'0 0.0
2017-Nov-07 07:00N 70°38' E 021°59'0 0.0
2017-Nov-07 06:30N 70°38' E 021°59'0 0.0
2017-Nov-07 06:00N 70°38' E 021°59'0 0.0
2017-Nov-07 05:31N 70°38' E 021°59'0 0.0
2017-Nov-07 05:00N 70°38' E 021°59'0 0.0
2017-Nov-07 04:30N 70°38' E 021°59'0 0.0
2017-Nov-07 04:00N 70°38' E 021°59'0 0.0
2017-Nov-07 03:30N 70°38' E 021°59'0 0.0
2017-Nov-07 03:00N 70°38' E 021°59'0 0.0
2017-Nov-07 02:30N 70°38' E 021°59'0 0.0
2017-Nov-07 02:00N 70°38' E 021°59'0 0.0
2017-Nov-07 01:30N 70°38' E 021°59'0 0.0
2017-Nov-07 01:00N 70°38' E 021°59'0 0.0
2017-Nov-07 00:30N 70°38' E 021°59'0 0.0
2017-Nov-07 00:00N 70°38' E 021°59'0 0.0
2017-Nov-06 23:30N 70°38' E 021°59'0 0.0
2017-Nov-06 23:00N 70°38' E 021°59'0 0.0
2017-Nov-06 22:30N 70°38' E 021°59'0 0.0
2017-Nov-06 22:01N 70°38' E 021°59'0 0.0
2017-Nov-06 21:30N 70°38' E 021°59'0 0.0
2017-Nov-06 21:00N 70°38' E 021°59'0 0.0
2017-Nov-06 20:30N 70°38' E 021°59'  
Track history (hours):
 
Tides and Currents Weather Stations Pressure Air Temp Water Temp Dewpoint Dewpoint Depression Visibility Wind Speed Wind Dir Waves Ship Positions

Rostjenta

Last reported at 2017-Nov-16 09:06 UTC. Time now 2017-Nov-24 20:42 UTC.
Position N 70°38' E 021°59'.
Warning: this ship's position is 8 days out of date.

Length 15 m.

Type: Ship. MMSI: 257077440.

Date/timePositionNaut miles runAvg speedWind from/ knotsBaromVisibWave heightAir tempDewpointWater temp
2017-Nov-16 09:06N 70°38' E 021°59'0 0.0
2017-Nov-16 09:01N 70°38' E 021°59'0 0.0
2017-Nov-16 08:30N 70°38' E 021°59'0 0.0
2017-Nov-16 08:00N 70°38' E 021°59'0 0.0
2017-Nov-16 07:30N 70°38' E 021°59'0 0.0
2017-Nov-16 07:00N 70°38' E 021°59'0 0.0
2017-Nov-16 06:31N 70°38' E 021°59'0 0.0
2017-Nov-16 06:01N 70°38' E 021°59'0 0.0
2017-Nov-16 05:30N 70°38' E 021°59'0 0.0
2017-Nov-16 05:00N 70°38' E 021°59'0 0.0
2017-Nov-16 04:30N 70°38' E 021°59'0 0.0
2017-Nov-16 04:00N 70°38' E 021°59'0 0.0
2017-Nov-16 03:30N 70°38' E 021°59'0 0.0
2017-Nov-16 03:00N 70°38' E 021°59'0 0.0
2017-Nov-16 02:30N 70°38' E 021°59'0 0.0
2017-Nov-16 02:00N 70°38' E 021°59'0 0.0
2017-Nov-16 01:30N 70°38' E 021°59'0 0.0
2017-Nov-16 01:01N 70°38' E 021°59'0 0.0
2017-Nov-16 00:30N 70°38' E 021°59'0 0.0
2017-Nov-16 00:00N 70°38' E 021°59'0 0.0
2017-Nov-15 23:30N 70°38' E 021°59'0 0.0
2017-Nov-15 23:00N 70°38' E 021°59'0 0.0
2017-Nov-15 22:30N 70°38' E 021°59'0 0.0
2017-Nov-15 22:00N 70°38' E 021°59'0 0.0
2017-Nov-15 21:30N 70°38' E 021°59'0 0.0
2017-Nov-15 21:00N 70°38' E 021°59'0 0.0
2017-Nov-15 20:30N 70°38' E 021°59'0 0.0
2017-Nov-15 20:00N 70°38' E 021°59'0 0.0
2017-Nov-15 19:30N 70°38' E 021°59'0 0.0
2017-Nov-15 19:00N 70°38' E 021°59'0 0.0
2017-Nov-15 18:30N 70°38' E 021°59'0 0.0
2017-Nov-15 18:00N 70°38' E 021°59'0 0.0
2017-Nov-15 17:30N 70°38' E 021°59'0 0.0
2017-Nov-15 17:00N 70°38' E 021°59'0 0.0
2017-Nov-15 16:30N 70°38' E 021°59'0 0.0
2017-Nov-15 16:00N 70°38' E 021°59'0 0.0
2017-Nov-15 15:30N 70°38' E 021°59'0 0.0
2017-Nov-15 15:00N 70°38' E 021°59'0 0.0
2017-Nov-15 14:30N 70°38' E 021°59'0 0.0
2017-Nov-15 14:00N 70°38' E 021°59'0 0.1
2017-Nov-15 13:31N 70°38' E 021°59'0 0.0
2017-Nov-15 13:00N 70°38' E 021°59'3 6.1
2017-Nov-15 12:30N 70°35' E 021°56'4 7.1
2017-Nov-15 12:00N 70°31' E 021°54'1 1.0
2017-Nov-15 11:30N 70°31' E 021°53'1 1.2
2017-Nov-15 11:01N 70°31' E 021°52'1 2.1
2017-Nov-15 10:31N 70°31' E 021°50'1 1.1
2017-Nov-15 10:00N 70°32' E 021°49'0 0.9
2017-Nov-15 09:30N 70°32' E 021°48'1 1.1
2017-Nov-15 09:00N 70°32' E 021°46'0 0.6
2017-Nov-15 08:30N 70°32' E 021°47'1 1.2
2017-Nov-15 08:01N 70°33' E 021°48'1 2.6
2017-Nov-15 07:30N 70°33' E 021°52'0 0.1
2017-Nov-15 07:00N 70°33' E 021°52'0 0.8
2017-Nov-15 06:30N 70°33' E 021°51'0 0.6
2017-Nov-15 06:00N 70°33' E 021°50'1 2.0
2017-Nov-15 05:30N 70°32' E 021°52'1 2.4
2017-Nov-15 05:00N 70°31' E 021°52'2 4.7
2017-Nov-15 04:30N 70°32' E 021°46'3 6.8
2017-Nov-15 04:00N 70°35' E 021°52'4 7.6
2017-Nov-15 03:30N 70°38' E 021°59'0 0.0
2017-Nov-15 03:00N 70°38' E 021°59'0 0.0
2017-Nov-15 02:30N 70°38' E 021°59'0 0.0
2017-Nov-15 02:00N 70°38' E 021°59'0 0.0
2017-Nov-15 01:30N 70°38' E 021°59'0 0.0
2017-Nov-15 01:00N 70°38' E 021°59'0 0.0
2017-Nov-15 00:30N 70°38' E 021°59'0 0.0
2017-Nov-15 00:00N 70°38' E 021°59'0 0.0
2017-Nov-14 23:30N 70°38' E 021°59'0 0.0
2017-Nov-14 23:00N 70°38' E 021°59'0 0.0
2017-Nov-14 22:30N 70°38' E 021°59'0 0.0
2017-Nov-14 22:01N 70°38' E 021°59'0 0.0
2017-Nov-14 21:30N 70°38' E 021°59'0 0.0
2017-Nov-14 21:00N 70°38' E 021°59'0 0.0
2017-Nov-14 20:30N 70°38' E 021°59'0 0.0
2017-Nov-14 20:00N 70°38' E 021°59'0 0.0
2017-Nov-14 19:30N 70°38' E 021°59'0 0.0
2017-Nov-14 19:01N 70°38' E 021°59'0 0.0
2017-Nov-14 18:30N 70°38' E 021°59'0 0.0
2017-Nov-14 18:00N 70°38' E 021°59'0 0.0
2017-Nov-14 17:30N 70°38' E 021°59'0 0.0
2017-Nov-14 17:00N 70°38' E 021°59'0 0.0
2017-Nov-14 16:30N 70°38' E 021°59'0 0.0
2017-Nov-14 16:00N 70°38' E 021°59'0 0.1
2017-Nov-14 15:30N 70°38' E 021°59'0 0.1
2017-Nov-14 15:00N 70°38' E 021°59'3 6.1
2017-Nov-14 14:30N 70°41' E 021°57'5 9.1
2017-Nov-14 14:00N 70°45' E 022°03'3 5.2
2017-Nov-14 13:30N 70°47' E 022°06'1 1.0
2017-Nov-14 13:00N 70°48' E 022°05'1 1.3
2017-Nov-14 12:30N 70°48' E 022°06'4 8.3
2017-Nov-14 12:00N 70°48' E 022°19'0 0.4
2017-Nov-14 11:30N 70°48' E 022°19'1 1.1
2017-Nov-14 11:00N 70°49' E 022°18'1 1.1
2017-Nov-14 10:31N 70°49' E 022°17'1 2.9
2017-Nov-14 10:01N 70°48' E 022°18'0 0.9
2017-Nov-14 09:30N 70°48' E 022°17'0 0.8
2017-Nov-14 09:00N 70°48' E 022°16'0 0.9
2017-Nov-14 08:30N 70°48' E 022°14'1 2.2
2017-Nov-14 08:00N 70°49' E 022°11'0 1.0
2017-Nov-14 07:30N 70°49' E 022°10'1 2.0
2017-Nov-14 07:00N 70°49' E 022°13'0 0.6
2017-Nov-14 06:30N 70°49' E 022°13'1 1.1
2017-Nov-14 06:00N 70°49' E 022°12'3 5.2
2017-Nov-14 05:30N 70°48' E 022°19'2 3.9
2017-Nov-14 05:00N 70°48' E 022°13'4 7.9
2017-Nov-14 04:30N 70°44' E 022°07'4 7.6
2017-Nov-14 04:00N 70°42' E 021°60'4 7.5
2017-Nov-14 03:31N 70°38' E 021°54'2 3.1
2017-Nov-14 03:00N 70°38' E 021°59'0 0.0
2017-Nov-14 02:30N 70°38' E 021°59'0 0.0
2017-Nov-14 02:00N 70°38' E 021°59'0 0.0
2017-Nov-14 01:30N 70°38' E 021°59'0 0.0
2017-Nov-14 01:00N 70°38' E 021°59'0 0.0
2017-Nov-14 00:30N 70°38' E 021°59'0 0.0
2017-Nov-14 00:00N 70°38' E 021°59'0 0.0
2017-Nov-13 23:31N 70°38' E 021°59'0 0.0
2017-Nov-13 23:00N 70°38' E 021°59'0 0.0
2017-Nov-13 22:30N 70°38' E 021°59'0 0.0
2017-Nov-13 22:00N 70°38' E 021°59'0 0.0
2017-Nov-13 02:00N 70°38' E 021°59'0 0.0
2017-Nov-13 01:30N 70°38' E 021°59'0 0.0
2017-Nov-13 01:00N 70°38' E 021°59'0 0.0
2017-Nov-13 00:30N 70°38' E 021°59'0 0.0
2017-Nov-13 00:00N 70°38' E 021°59'0 0.0
2017-Nov-12 23:30N 70°38' E 021°59'0 0.0
2017-Nov-12 23:01N 70°38' E 021°59'0 0.0
2017-Nov-12 22:30N 70°38' E 021°59'0 0.0
2017-Nov-12 22:00N 70°38' E 021°59'0 0.0
2017-Nov-12 21:30N 70°38' E 021°59'0 0.0
2017-Nov-12 21:01N 70°38' E 021°59'0 0.0
2017-Nov-12 20:30N 70°38' E 021°59'0 0.0
2017-Nov-12 20:01N 70°38' E 021°59'0 0.0
2017-Nov-12 19:31N 70°38' E 021°59'0 0.0
2017-Nov-12 19:00N 70°38' E 021°59'0 0.0
2017-Nov-12 18:30N 70°38' E 021°59'0 0.0
2017-Nov-12 18:01N 70°38' E 021°59'0 0.0
2017-Nov-12 17:30N 70°38' E 021°59'0 0.0
2017-Nov-12 17:00N 70°38' E 021°59'0 0.0
2017-Nov-12 16:30N 70°38' E 021°59'0 0.0
2017-Nov-12 16:00N 70°38' E 021°59'0 0.0
2017-Nov-12 15:30N 70°38' E 021°59'0 0.0
2017-Nov-12 15:01N 70°38' E 021°59'0 0.0
2017-Nov-12 14:30N 70°38' E 021°59'0 0.0
2017-Nov-12 14:00N 70°38' E 021°59'0 0.0
2017-Nov-12 13:30N 70°38' E 021°59'0 0.0
2017-Nov-12 13:00N 70°38' E 021°59'0 0.0
2017-Nov-12 12:30N 70°38' E 021°59'0 0.0
2017-Nov-12 12:00N 70°38' E 021°59'0 0.0
2017-Nov-12 11:30N 70°38' E 021°59'0 0.0
2017-Nov-12 11:00N 70°38' E 021°59'0 0.0
2017-Nov-12 10:30N 70°38' E 021°59'0 0.0
2017-Nov-12 10:00N 70°38' E 021°59'0 0.0
2017-Nov-12 09:30N 70°38' E 021°59'0 0.0
2017-Nov-12 09:00N 70°38' E 021°59'0 0.0
2017-Nov-12 08:30N 70°38' E 021°59'0 0.0
2017-Nov-12 08:00N 70°38' E 021°59'0 0.0
2017-Nov-12 07:30N 70°38' E 021°59'0 0.0
2017-Nov-12 07:00N 70°38' E 021°59'0 0.0
2017-Nov-12 06:30N 70°38' E 021°59'0 0.0
2017-Nov-12 06:00N 70°38' E 021°59'0 0.0
2017-Nov-12 05:30N 70°38' E 021°59'0 0.0
2017-Nov-12 05:00N 70°38' E 021°59'0 0.0
2017-Nov-12 04:30N 70°38' E 021°59'0 0.0
2017-Nov-12 04:00N 70°38' E 021°59'0 0.0
2017-Nov-12 03:31N 70°38' E 021°59'0 0.0
2017-Nov-12 03:00N 70°38' E 021°59'0 0.0
2017-Nov-12 02:30N 70°38' E 021°59'0 0.0
2017-Nov-12 02:00N 70°38' E 021°59'0 0.0
2017-Nov-12 01:30N 70°38' E 021°59'0 0.0
2017-Nov-12 01:00N 70°38' E 021°59'0 0.0
2017-Nov-12 00:30N 70°38' E 021°59'0 0.0
2017-Nov-12 00:00N 70°38' E 021°59'0 0.0
2017-Nov-11 23:31N 70°38' E 021°59'0 0.0
2017-Nov-11 23:01N 70°38' E 021°59'0 0.0
2017-Nov-11 22:30N 70°38' E 021°59'0 0.0
2017-Nov-11 22:00N 70°38' E 021°59'0 0.0
2017-Nov-11 21:30N 70°38' E 021°59'0 0.0
2017-Nov-11 21:00N 70°38' E 021°59'0 0.0
2017-Nov-11 20:30N 70°38' E 021°59'0 0.0
2017-Nov-11 20:00N 70°38' E 021°59'0 0.0
2017-Nov-11 19:30N 70°38' E 021°59'0 0.0
2017-Nov-11 19:00N 70°38' E 021°59'0 0.0
2017-Nov-11 18:30N 70°38' E 021°59'0 0.0
2017-Nov-11 18:00N 70°38' E 021°59'0 0.0
2017-Nov-11 17:30N 70°38' E 021°59'0 0.0
2017-Nov-11 17:00N 70°38' E 021°59'0 0.0
2017-Nov-11 16:30N 70°38' E 021°59'0 0.0
2017-Nov-11 16:00N 70°38' E 021°59'0 0.0
2017-Nov-11 15:30N 70°38' E 021°59'0 0.0
2017-Nov-11 15:00N 70°38' E 021°59'0 0.0
2017-Nov-11 14:30N 70°38' E 021°59'0 0.1
2017-Nov-11 14:00N 70°38' E 021°59'2 3.1
2017-Nov-11 13:30N 70°39' E 021°56'4 8.2
2017-Nov-11 13:00N 70°43' E 022°00'4 8.9
2017-Nov-11 12:30N 70°47' E 022°06'2 4.3
2017-Nov-11 12:00N 70°48' E 022°11'1 1.2
2017-Nov-11 11:30N 70°49' E 022°12'3 6.3
2017-Nov-11 11:01N 70°46' E 022°17'0 0.2
2017-Nov-11 10:30N 70°46' E 022°17'1 1.3
2017-Nov-11 10:00N 70°47' E 022°17'1 1.2
2017-Nov-11 09:30N 70°48' E 022°16'3 5.9
2017-Nov-11 09:00N 70°45' E 022°15'1 1.1
2017-Nov-11 08:30N 70°45' E 022°15'1 1.2
2017-Nov-11 08:00N 70°46' E 022°14'0 1.0
2017-Nov-11 07:30N 70°46' E 022°13'1 1.0
2017-Nov-11 07:00N 70°47' E 022°14'0 1.0
2017-Nov-11 06:30N 70°47' E 022°15'1 1.2
2017-Nov-11 06:00N 70°47' E 022°16'1 2.9
2017-Nov-11 05:30N 70°46' E 022°17'1 2.9
2017-Nov-11 05:00N 70°45' E 022°15'4 8.7
2017-Nov-11 04:30N 70°42' E 022°04'4 8.9
2017-Nov-11 04:00N 70°39' E 021°55'2 3.7
2017-Nov-11 03:30N 70°38' E 021°59'0 0.0
2017-Nov-11 03:00N 70°38' E 021°59'0 0.0
2017-Nov-11 02:31N 70°38' E 021°59'0 0.0
2017-Nov-11 02:01N 70°38' E 021°59'0 0.0
2017-Nov-11 01:31N 70°38' E 021°59'0 0.0
2017-Nov-11 01:00N 70°38' E 021°59'0 0.0
2017-Nov-11 00:30N 70°38' E 021°59'0 0.0
2017-Nov-11 00:00N 70°38' E 021°59'0 0.0
2017-Nov-10 23:30N 70°38' E 021°59'0 0.0
2017-Nov-10 23:00N 70°38' E 021°59'0 0.0
2017-Nov-10 22:30N 70°38' E 021°59'0 0.0
2017-Nov-10 22:01N 70°38' E 021°59'0 0.0
2017-Nov-10 21:30N 70°38' E 021°59'0 0.0
2017-Nov-10 21:01N 70°38' E 021°59'0 0.0
2017-Nov-10 20:30N 70°38' E 021°59'0 0.0
2017-Nov-10 20:00N 70°38' E 021°59'0 0.0
2017-Nov-10 19:30N 70°38' E 021°59'0 0.0
2017-Nov-10 19:00N 70°38' E 021°59'0 0.0
2017-Nov-10 18:30N 70°38' E 021°59'0 0.0
2017-Nov-10 18:01N 70°38' E 021°59'0 0.0
2017-Nov-10 17:30N 70°38' E 021°59'0 0.0
2017-Nov-10 17:00N 70°38' E 021°59'0 0.0
2017-Nov-10 16:30N 70°38' E 021°59'0 0.0
2017-Nov-10 16:00N 70°38' E 021°59'0 0.0
2017-Nov-10 15:30N 70°38' E 021°59'0 0.0
2017-Nov-10 15:00N 70°38' E 021°59'0 0.0
2017-Nov-10 14:30N 70°38' E 021°59'0 0.0
2017-Nov-10 14:00N 70°38' E 021°59'0 0.0
2017-Nov-10 13:30N 70°38' E 021°59'0 0.0
2017-Nov-10 13:00N 70°38' E 021°59'0 0.0
2017-Nov-10 12:30N 70°38' E 021°59'0 0.0
2017-Nov-10 12:00N 70°38' E 021°59'0 0.0
2017-Nov-10 11:30N 70°38' E 021°59'0 0.0
2017-Nov-10 11:00N 70°38' E 021°59'0 0.0
2017-Nov-10 10:30N 70°38' E 021°59'0 0.0
2017-Nov-10 10:00N 70°38' E 021°59'0 0.0
2017-Nov-10 09:30N 70°38' E 021°59'0 0.0
2017-Nov-10 09:01N 70°38' E 021°59'0 0.0
2017-Nov-10 08:30N 70°38' E 021°59'0 0.0
2017-Nov-10 08:01N 70°38' E 021°59'0 0.0
2017-Nov-10 07:31N 70°38' E 021°59'0 0.0
2017-Nov-10 07:00N 70°38' E 021°59'0 0.0
2017-Nov-10 06:30N 70°38' E 021°59'0 0.0
2017-Nov-10 06:00N 70°38' E 021°59'0 0.0
2017-Nov-10 05:30N 70°38' E 021°59'0 0.0
2017-Nov-10 05:01N 70°38' E 021°59'0 0.0
2017-Nov-10 04:30N 70°38' E 021°59'0 0.0
2017-Nov-10 04:00N 70°38' E 021°59'0 0.0
2017-Nov-10 03:30N 70°38' E 021°59'0 0.0
2017-Nov-10 03:00N 70°38' E 021°59'0 0.0
2017-Nov-10 02:30N 70°38' E 021°59'0 0.0
2017-Nov-10 02:00N 70°38' E 021°59'0 0.0
2017-Nov-10 01:30N 70°38' E 021°59'0 0.0
2017-Nov-10 01:00N 70°38' E 021°59'0 0.0
2017-Nov-10 00:30N 70°38' E 021°59'0 0.0
2017-Nov-10 00:00N 70°38' E 021°59'0 0.0
2017-Nov-09 23:30N 70°38' E 021°59'0 0.0
2017-Nov-09 23:00N 70°38' E 021°59'0 0.0
2017-Nov-09 22:30N 70°38' E 021°59'0 0.0
2017-Nov-09 22:00N 70°38' E 021°59'0 0.0
2017-Nov-09 21:29N 70°38' E 021°59'0 0.0
2017-Nov-09 21:00N 70°38' E 021°59'0 0.0
2017-Nov-09 20:30N 70°38' E 021°59'0 0.0
2017-Nov-09 20:01N 70°38' E 021°59'0 0.0
2017-Nov-09 19:30N 70°38' E 021°59'0 0.0
2017-Nov-09 18:59N 70°38' E 021°59'0 0.0
2017-Nov-09 18:30N 70°38' E 021°59'0 0.0
2017-Nov-09 18:00N 70°38' E 021°59'0 0.0
2017-Nov-09 17:30N 70°38' E 021°59'0 0.0
2017-Nov-09 17:01N 70°38' E 021°59'0 0.0
2017-Nov-09 16:31N 70°38' E 021°59'0 0.0
2017-Nov-09 16:00N 70°38' E 021°59'0 0.0
2017-Nov-09 15:30N 70°38' E 021°59'0 0.0
2017-Nov-09 15:00N 70°38' E 021°59'0 0.0
2017-Nov-09 14:30N 70°38' E 021°59'0 0.0
2017-Nov-09 14:00N 70°38' E 021°59'0 0.1
2017-Nov-09 13:30N 70°38' E 021°59'1 1.5
2017-Nov-09 13:00N 70°38' E 021°57'3 5.7
2017-Nov-09 12:30N 70°40' E 021°57'4 7.7
2017-Nov-09 12:01N 70°43' E 022°05'1 1.2
2017-Nov-09 11:30N 70°44' E 022°04'1 1.1
2017-Nov-09 11:01N 70°44' E 022°03'1 1.0
2017-Nov-09 10:31N 70°45' E 022°02'1 1.4
2017-Nov-09 10:00N 70°45' E 022°00'0 0.8
2017-Nov-09 09:30N 70°45' E 021°60'0 0.9
2017-Nov-09 09:00N 70°46' E 021°59'0 0.8
2017-Nov-09 08:30N 70°46' E 021°59'0 0.1
2017-Nov-09 08:00N 70°46' E 021°59'2 4.0
2017-Nov-09 07:30N 70°44' E 021°59'0 0.9
2017-Nov-09 07:00N 70°44' E 021°58'0 0.9
2017-Nov-09 06:30N 70°45' E 021°57'0 0.8
2017-Nov-09 06:01N 70°45' E 021°56'1 2.3
2017-Nov-09 05:30N 70°44' E 021°56'5 9.0
2017-Nov-09 05:00N 70°39' E 021°54'2 3.9
2017-Nov-09 04:31N 70°38' E 021°59'0 0.0
2017-Nov-09 04:00N 70°38' E 021°59'0 0.0
2017-Nov-09 03:30N 70°38' E 021°59'0 0.0
2017-Nov-09 03:00N 70°38' E 021°59'0 0.0
2017-Nov-09 02:30N 70°38' E 021°59'0 0.0
2017-Nov-09 02:00N 70°38' E 021°59'0 0.0
2017-Nov-09 01:30N 70°38' E 021°59'0 0.0
2017-Nov-09 01:00N 70°38' E 021°59'0 0.0
2017-Nov-09 00:30N 70°38' E 021°59'0 0.0
2017-Nov-09 00:00N 70°38' E 021°59'0 0.0
2017-Nov-08 23:30N 70°38' E 021°59'0 0.0
2017-Nov-08 23:00N 70°38' E 021°59'0 0.0
2017-Nov-08 22:30N 70°38' E 021°59'0 0.0
2017-Nov-08 22:00N 70°38' E 021°59'0 0.0
2017-Nov-08 21:30N 70°38' E 021°59'0 0.0
2017-Nov-08 21:00N 70°38' E 021°59'0 0.0
2017-Nov-08 20:30N 70°38' E 021°59'0 0.0
2017-Nov-08 20:01N 70°38' E 021°59'0 0.0
2017-Nov-08 19:30N 70°38' E 021°59'0 0.0
2017-Nov-08 19:00N 70°38' E 021°59'0 0.0
2017-Nov-08 18:31N 70°38' E 021°59'0 0.0
2017-Nov-08 18:00N 70°38' E 021°59'0 0.0
2017-Nov-08 17:30N 70°38' E 021°59'0 0.1
2017-Nov-08 17:00N 70°38' E 021°59'1 2.5
2017-Nov-08 16:30N 70°38' E 021°55'3 6.6
2017-Nov-08 16:00N 70°41' E 021°58'3 6.5
2017-Nov-08 15:30N 70°43' E 022°05'2 4.2
2017-Nov-08 15:00N 70°45' E 022°00'0 0.8
2017-Nov-08 14:30N 70°45' E 021°59'1 2.2
2017-Nov-08 14:00N 70°45' E 021°56'4 8.2
2017-Nov-08 13:30N 70°41' E 021°51'4 8.7
2017-Nov-08 12:59N 70°37' E 021°48'4 8.2
2017-Nov-08 12:30N 70°33' E 021°46'0 0.4
2017-Nov-08 12:00N 70°33' E 021°47'1 1.0
2017-Nov-08 11:30N 70°33' E 021°48'0 0.9
2017-Nov-08 11:01N 70°33' E 021°49'1 2.2
2017-Nov-08 10:30N 70°32' E 021°47'0 0.8
2017-Nov-08 10:00N 70°32' E 021°49'0 0.9
2017-Nov-08 09:30N 70°33' E 021°50'0 0.3
2017-Nov-08 09:00N 70°33' E 021°50'1 2.7
2017-Nov-08 08:30N 70°32' E 021°48'0 0.9
2017-Nov-08 08:01N 70°32' E 021°49'1 1.1
2017-Nov-08 07:30N 70°32' E 021°50'1 1.9
2017-Nov-08 07:00N 70°31' E 021°49'1 1.0
2017-Nov-08 06:31N 70°32' E 021°50'1 1.0
2017-Nov-08 06:01N 70°32' E 021°51'2 3.7
2017-Nov-08 05:31N 70°34' E 021°53'4 7.7
2017-Nov-08 05:00N 70°38' E 021°58'0 0.8
2017-Nov-08 04:31N 70°38' E 021°59'0 0.0
2017-Nov-08 04:00N 70°38' E 021°59'0 0.0
2017-Nov-08 03:30N 70°38' E 021°59'0 0.0
2017-Nov-08 03:00N 70°38' E 021°59'0 0.0
2017-Nov-08 02:30N 70°38' E 021°59'0 0.0
2017-Nov-08 02:00N 70°38' E 021°59'0 0.0
2017-Nov-08 01:30N 70°38' E 021°59'0 0.0
2017-Nov-08 01:00N 70°38' E 021°59'0 0.0
2017-Nov-08 00:29N 70°38' E 021°59'0 0.0
2017-Nov-08 00:00N 70°38' E 021°59'0 0.0
2017-Nov-07 22:40N 70°38' E 021°59'0 0.0
2017-Nov-07 22:30N 70°38' E 021°59'0 0.0
2017-Nov-07 22:00N 70°38' E 021°59'0 0.0
2017-Nov-07 21:31N 70°38' E 021°59'0 0.0
2017-Nov-07 21:00N 70°38' E 021°59'0 0.0
2017-Nov-07 20:30N 70°38' E 021°59'0 0.0
2017-Nov-07 20:00N 70°38' E 021°59'0 0.0
2017-Nov-07 19:30N 70°38' E 021°59'0 0.0
2017-Nov-07 19:00N 70°38' E 021°59'0 0.0
2017-Nov-07 18:30N 70°38' E 021°59'0 0.0
2017-Nov-07 18:00N 70°38' E 021°59'0 0.0
2017-Nov-07 17:30N 70°38' E 021°59'0 0.0
2017-Nov-07 17:00N 70°38' E 021°59'0 0.0
2017-Nov-07 16:30N 70°38' E 021°59'0 0.0
2017-Nov-07 16:01N 70°38' E 021°59'0 0.0
2017-Nov-07 15:31N 70°38' E 021°59'0 0.0
2017-Nov-07 15:00N 70°38' E 021°59'0 0.0
2017-Nov-07 14:30N 70°38' E 021°59'0 0.0
2017-Nov-07 14:00N 70°38' E 021°59'0 0.1
2017-Nov-07 13:30N 70°38' E 021°59'4 8.1
2017-Nov-07 13:00N 70°35' E 021°50'3 5.2
2017-Nov-07 12:31N 70°33' E 021°47'1 2.0
2017-Nov-07 12:00N 70°33' E 021°50'2 3.0
2017-Nov-07 11:30N 70°31' E 021°49'2 3.9
2017-Nov-07 11:00N 70°33' E 021°50'4 7.6
2017-Nov-07 10:30N 70°37' E 021°56'2 3.3
2017-Nov-07 10:00N 70°38' E 021°59'0 0.0
2017-Nov-07 09:30N 70°38' E 021°59'0 0.0
2017-Nov-07 09:00N 70°38' E 021°59'0 0.0
2017-Nov-07 08:31N 70°38' E 021°59'0 0.0
2017-Nov-07 08:00N 70°38' E 021°59'0 0.0
2017-Nov-07 07:30N 70°38' E 021°59'0 0.0
2017-Nov-07 07:00N 70°38' E 021°59'0 0.0
2017-Nov-07 06:30N 70°38' E 021°59'0 0.0
2017-Nov-07 06:00N 70°38' E 021°59'0 0.0
2017-Nov-07 05:31N 70°38' E 021°59'0 0.0
2017-Nov-07 05:00N 70°38' E 021°59'0 0.0
2017-Nov-07 04:30N 70°38' E 021°59'0 0.0
2017-Nov-07 04:00N 70°38' E 021°59'0 0.0
2017-Nov-07 03:30N 70°38' E 021°59'0 0.0
2017-Nov-07 03:00N 70°38' E 021°59'0 0.0
2017-Nov-07 02:30N 70°38' E 021°59'0 0.0
2017-Nov-07 02:00N 70°38' E 021°59'0 0.0
2017-Nov-07 01:30N 70°38' E 021°59'0 0.0
2017-Nov-07 01:00N 70°38' E 021°59'0 0.0
2017-Nov-07 00:30N 70°38' E 021°59'0 0.0
2017-Nov-07 00:00N 70°38' E 021°59'0 0.0
2017-Nov-06 23:30N 70°38' E 021°59'0 0.0
2017-Nov-06 23:00N 70°38' E 021°59'0 0.0
2017-Nov-06 22:30N 70°38' E 021°59'0 0.0
2017-Nov-06 22:01N 70°38' E 021°59'0 0.0
2017-Nov-06 21:30N 70°38' E 021°59'0 0.0
2017-Nov-06 21:00N 70°38' E 021°59'0 0.0
2017-Nov-06 20:30N 70°38' E 021°59'  

Dump ship's entire track history